sensor_id;sensor_type;location;lat;lon;timestamp;temperature;humidity
2929;DHT22;1474;51.460;7.150;2022-09-09T00:02:26;16.10;99.90
2929;DHT22;1474;51.460;7.150;2022-09-09T00:07:43;16.00;99.90
2929;DHT22;1474;51.460;7.150;2022-09-09T00:10:29;16.00;99.90
2929;DHT22;1474;51.460;7.150;2022-09-09T00:21:14;15.90;99.90
2929;DHT22;1474;51.460;7.150;2022-09-09T00:23:50;15.80;99.90
2929;DHT22;1474;51.460;7.150;2022-09-09T00:32:05;15.60;99.90
2929;DHT22;1474;51.460;7.150;2022-09-09T00:34:35;15.60;99.90
2929;DHT22;1474;51.460;7.150;2022-09-09T00:37:02;15.60;99.90
2929;DHT22;1474;51.460;7.150;2022-09-09T00:39:36;15.60;99.90
2929;DHT22;1474;51.460;7.150;2022-09-09T00:42:18;15.50;99.90
2929;DHT22;1474;51.460;7.150;2022-09-09T00:47:44;15.50;99.90
2929;DHT22;1474;51.460;7.150;2022-09-09T00:58:43;15.60;99.90
2929;DHT22;1474;51.460;7.150;2022-09-09T01:01:13;15.60;99.90
2929;DHT22;1474;51.460;7.150;2022-09-09T01:03:41;15.50;99.90
2929;DHT22;1474;51.460;7.150;2022-09-09T01:06:33;15.60;99.90
2929;DHT22;1474;51.460;7.150;2022-09-09T01:14:29;15.70;99.90
2929;DHT22;1474;51.460;7.150;2022-09-09T01:16:59;15.70;99.90
2929;DHT22;1474;51.460;7.150;2022-09-09T01:27:43;15.70;99.90
2929;DHT22;1474;51.460;7.150;2022-09-09T01:30:11;15.70;99.90
2929;DHT22;1474;51.460;7.150;2022-09-09T01:35:04;15.80;99.90
2929;DHT22;1474;51.460;7.150;2022-09-09T01:37:31;15.80;99.90
2929;DHT22;1474;51.460;7.150;2022-09-09T01:39:56;15.80;99.90
2929;DHT22;1474;51.460;7.150;2022-09-09T01:42:22;15.80;99.90
2929;DHT22;1474;51.460;7.150;2022-09-09T01:44:47;15.90;99.90
2929;DHT22;1474;51.460;7.150;2022-09-09T01:47:15;15.90;99.90
2929;DHT22;1474;51.460;7.150;2022-09-09T01:49:40;15.90;99.90
2929;DHT22;1474;51.460;7.150;2022-09-09T01:52:06;15.90;99.90
2929;DHT22;1474;51.460;7.150;2022-09-09T01:54:34;15.90;99.90
2929;DHT22;1474;51.460;7.150;2022-09-09T02:04:43;15.60;99.90
2929;DHT22;1474;51.460;7.150;2022-09-09T02:10:23;15.60;99.90
2929;DHT22;1474;51.460;7.150;2022-09-09T02:12:59;15.70;99.90
2929;DHT22;1474;51.460;7.150;2022-09-09T02:18:22;15.60;99.90
2929;DHT22;1474;51.460;7.150;2022-09-09T02:20:51;15.60;99.90
2929;DHT22;1474;51.460;7.150;2022-09-09T02:23:17;15.70;99.90
2929;DHT22;1474;51.460;7.150;2022-09-09T02:25:45;15.70;99.90
2929;DHT22;1474;51.460;7.150;2022-09-09T02:28:13;15.60;99.90
2929;DHT22;1474;51.460;7.150;2022-09-09T02:30:41;15.60;99.90
2929;DHT22;1474;51.460;7.150;2022-09-09T02:33:09;15.60;99.90
2929;DHT22;1474;51.460;7.150;2022-09-09T02:35:38;15.60;99.90
2929;DHT22;1474;51.460;7.150;2022-09-09T02:38:08;15.60;99.90
2929;DHT22;1474;51.460;7.150;2022-09-09T02:40:35;15.60;99.90
2929;DHT22;1474;51.460;7.150;2022-09-09T02:43:01;15.60;99.90
2929;DHT22;1474;51.460;7.150;2022-09-09T02:45:35;15.60;99.90
2929;DHT22;1474;51.460;7.150;2022-09-09T02:48:14;15.60;99.90
2929;DHT22;1474;51.460;7.150;2022-09-09T02:53:41;15.60;99.90
2929;DHT22;1474;51.460;7.150;2022-09-09T02:56:15;15.70;99.90
2929;DHT22;1474;51.460;7.150;2022-09-09T02:58:42;15.60;99.90
2929;DHT22;1474;51.460;7.150;2022-09-09T03:01:08;15.60;99.90
2929;DHT22;1474;51.460;7.150;2022-09-09T03:03:34;15.70;99.90
2929;DHT22;1474;51.460;7.150;2022-09-09T03:06:00;15.60;99.90
2929;DHT22;1474;51.460;7.150;2022-09-09T03:08:26;15.60;99.90
2929;DHT22;1474;51.460;7.150;2022-09-09T03:10:54;15.70;99.90
2929;DHT22;1474;51.460;7.150;2022-09-09T03:13:20;15.70;99.90
2929;DHT22;1474;51.460;7.150;2022-09-09T03:15:47;15.60;99.90
2929;DHT22;1474;51.460;7.150;2022-09-09T03:18:13;15.70;99.90
2929;DHT22;1474;51.460;7.150;2022-09-09T03:20:39;15.70;99.90
2929;DHT22;1474;51.460;7.150;2022-09-09T03:23:06;15.70;99.90
2929;DHT22;1474;51.460;7.150;2022-09-09T03:25:32;15.70;99.90
2929;DHT22;1474;51.460;7.150;2022-09-09T03:27:59;15.70;99.90
2929;DHT22;1474;51.460;7.150;2022-09-09T03:30:26;15.70;99.90
2929;DHT22;1474;51.460;7.150;2022-09-09T03:32:52;15.70;99.90
2929;DHT22;1474;51.460;7.150;2022-09-09T03:35:18;15.70;99.90
2929;DHT22;1474;51.460;7.150;2022-09-09T03:37:44;15.70;99.90
2929;DHT22;1474;51.460;7.150;2022-09-09T03:40:10;15.70;99.90
2929;DHT22;1474;51.460;7.150;2022-09-09T03:42:37;15.70;99.90
2929;DHT22;1474;51.460;7.150;2022-09-09T03:45:04;15.70;99.90
2929;DHT22;1474;51.460;7.150;2022-09-09T03:47:30;15.70;99.90
2929;DHT22;1474;51.460;7.150;2022-09-09T03:49:56;15.70;99.90
2929;DHT22;1474;51.460;7.150;2022-09-09T03:52:22;15.70;99.90
2929;DHT22;1474;51.460;7.150;2022-09-09T03:54:50;15.70;99.90
2929;DHT22;1474;51.460;7.150;2022-09-09T03:57:17;15.70;99.90
2929;DHT22;1474;51.460;7.150;2022-09-09T03:59:43;15.70;99.90
2929;DHT22;1474;51.460;7.150;2022-09-09T04:02:09;15.70;99.90
2929;DHT22;1474;51.460;7.150;2022-09-09T04:04:35;15.70;99.90
2929;DHT22;1474;51.460;7.150;2022-09-09T04:07:01;15.70;99.90
2929;DHT22;1474;51.460;7.150;2022-09-09T04:09:26;15.70;99.90
2929;DHT22;1474;51.460;7.150;2022-09-09T04:11:52;15.70;99.90
2929;DHT22;1474;51.460;7.150;2022-09-09T04:14:19;15.70;99.90
2929;DHT22;1474;51.460;7.150;2022-09-09T04:16:44;15.70;99.90
2929;DHT22;1474;51.460;7.150;2022-09-09T04:19:12;15.70;99.90
2929;DHT22;1474;51.460;7.150;2022-09-09T04:21:42;15.70;99.90
2929;DHT22;1474;51.460;7.150;2022-09-09T04:24:08;15.70;99.90
2929;DHT22;1474;51.460;7.150;2022-09-09T04:26:34;15.70;99.90
2929;DHT22;1474;51.460;7.150;2022-09-09T04:29:02;15.70;99.90
2929;DHT22;1474;51.460;7.150;2022-09-09T04:31:28;15.70;99.90
2929;DHT22;1474;51.460;7.150;2022-09-09T04:33:54;15.70;99.90
2929;DHT22;1474;51.460;7.150;2022-09-09T04:36:20;15.60;99.90
2929;DHT22;1474;51.460;7.150;2022-09-09T04:38:46;15.60;99.90
2929;DHT22;1474;51.460;7.150;2022-09-09T04:41:12;15.60;99.90
2929;DHT22;1474;51.460;7.150;2022-09-09T04:43:38;15.60;99.90
2929;DHT22;1474;51.460;7.150;2022-09-09T04:46:05;15.50;99.90
2929;DHT22;1474;51.460;7.150;2022-09-09T04:48:31;15.50;99.90
2929;DHT22;1474;51.460;7.150;2022-09-09T04:50:58;15.50;99.90
2929;DHT22;1474;51.460;7.150;2022-09-09T04:53:25;15.50;99.90
2929;DHT22;1474;51.460;7.150;2022-09-09T04:55:52;15.50;99.90
2929;DHT22;1474;51.460;7.150;2022-09-09T04:58:18;15.60;99.90
2929;DHT22;1474;51.460;7.150;2022-09-09T05:00:44;15.60;99.90
2929;DHT22;1474;51.460;7.150;2022-09-09T05:03:09;15.60;99.90
2929;DHT22;1474;51.460;7.150;2022-09-09T05:05:35;15.60;99.90
2929;DHT22;1474;51.460;7.150;2022-09-09T05:08:05;15.60;99.90
2929;DHT22;1474;51.460;7.150;2022-09-09T05:10:31;15.70;99.90
2929;DHT22;1474;51.460;7.150;2022-09-09T05:12:57;15.70;99.90
2929;DHT22;1474;51.460;7.150;2022-09-09T05:15:23;15.70;99.90
2929;DHT22;1474;51.460;7.150;2022-09-09T05:17:49;15.80;99.90
2929;DHT22;1474;51.460;7.150;2022-09-09T05:20:15;15.80;99.90
2929;DHT22;1474;51.460;7.150;2022-09-09T05:22:40;15.80;99.90
2929;DHT22;1474;51.460;7.150;2022-09-09T05:25:06;15.80;99.90
2929;DHT22;1474;51.460;7.150;2022-09-09T05:27:34;15.80;99.90
2929;DHT22;1474;51.460;7.150;2022-09-09T05:29:59;15.80;99.90
2929;DHT22;1474;51.460;7.150;2022-09-09T05:32:25;15.80;99.90
2929;DHT22;1474;51.460;7.150;2022-09-09T05:34:51;15.80;99.90
2929;DHT22;1474;51.460;7.150;2022-09-09T05:37:18;15.80;99.90
2929;DHT22;1474;51.460;7.150;2022-09-09T05:39:44;15.80;99.90
2929;DHT22;1474;51.460;7.150;2022-09-09T05:42:10;15.80;99.90
2929;DHT22;1474;51.460;7.150;2022-09-09T05:44:35;15.90;99.90
2929;DHT22;1474;51.460;7.150;2022-09-09T05:47:02;15.90;99.90
2929;DHT22;1474;51.460;7.150;2022-09-09T05:49:28;15.80;99.90
2929;DHT22;1474;51.460;7.150;2022-09-09T05:51:54;15.90;99.90
2929;DHT22;1474;51.460;7.150;2022-09-09T05:54:20;15.90;99.90
2929;DHT22;1474;51.460;7.150;2022-09-09T05:56:45;15.90;99.90
2929;DHT22;1474;51.460;7.150;2022-09-09T05:59:11;15.90;99.90
2929;DHT22;1474;51.460;7.150;2022-09-09T06:01:38;15.90;99.90
2929;DHT22;1474;51.460;7.150;2022-09-09T06:04:06;15.90;99.90
2929;DHT22;1474;51.460;7.150;2022-09-09T06:06:39;16.00;99.90
2929;DHT22;1474;51.460;7.150;2022-09-09T06:09:20;16.00;99.90
2929;DHT22;1474;51.460;7.150;2022-09-09T06:11:46;16.00;99.90
2929;DHT22;1474;51.460;7.150;2022-09-09T06:14:11;16.10;99.90
2929;DHT22;1474;51.460;7.150;2022-09-09T06:16:37;16.10;99.90
2929;DHT22;1474;51.460;7.150;2022-09-09T06:19:03;16.10;99.90
2929;DHT22;1474;51.460;7.150;2022-09-09T06:21:31;16.10;99.90
2929;DHT22;1474;51.460;7.150;2022-09-09T06:23:58;16.10;99.90
2929;DHT22;1474;51.460;7.150;2022-09-09T06:26:30;16.20;99.90
2929;DHT22;1474;51.460;7.150;2022-09-09T06:28:56;16.20;99.90
2929;DHT22;1474;51.460;7.150;2022-09-09T06:31:25;16.30;99.90
2929;DHT22;1474;51.460;7.150;2022-09-09T06:33:52;16.30;99.90
2929;DHT22;1474;51.460;7.150;2022-09-09T06:36:20;16.30;99.90
2929;DHT22;1474;51.460;7.150;2022-09-09T06:38:47;16.40;99.90
2929;DHT22;1474;51.460;7.150;2022-09-09T06:41:14;16.40;99.90
2929;DHT22;1474;51.460;7.150;2022-09-09T06:43:41;16.40;99.90
2929;DHT22;1474;51.460;7.150;2022-09-09T06:46:15;16.50;99.90
2929;DHT22;1474;51.460;7.150;2022-09-09T06:48:42;16.40;99.90
2929;DHT22;1474;51.460;7.150;2022-09-09T06:51:18;16.50;99.90
2929;DHT22;1474;51.460;7.150;2022-09-09T06:53:45;16.60;99.90
2929;DHT22;1474;51.460;7.150;2022-09-09T06:58:41;16.70;99.90
2929;DHT22;1474;51.460;7.150;2022-09-09T07:01:09;16.70;99.90
2929;DHT22;1474;51.460;7.150;2022-09-09T07:03:35;16.70;99.90
2929;DHT22;1474;51.460;7.150;2022-09-09T07:06:02;16.70;99.90
2929;DHT22;1474;51.460;7.150;2022-09-09T07:08:29;16.70;99.90
2929;DHT22;1474;51.460;7.150;2022-09-09T07:11:02;16.70;99.90
2929;DHT22;1474;51.460;7.150;2022-09-09T07:13:31;16.80;99.90
2929;DHT22;1474;51.460;7.150;2022-09-09T07:16:07;16.90;99.90
2929;DHT22;1474;51.460;7.150;2022-09-09T07:18:33;17.00;99.90
2929;DHT22;1474;51.460;7.150;2022-09-09T07:21:00;17.20;99.90
2929;DHT22;1474;51.460;7.150;2022-09-09T07:23:28;17.30;99.90
2929;DHT22;1474;51.460;7.150;2022-09-09T07:25:54;17.50;99.90
2929;DHT22;1474;51.460;7.150;2022-09-09T07:28:22;17.60;99.90
2929;DHT22;1474;51.460;7.150;2022-09-09T07:30:58;17.80;99.90
2929;DHT22;1474;51.460;7.150;2022-09-09T07:33:25;17.70;99.90
2929;DHT22;1474;51.460;7.150;2022-09-09T07:35:52;17.70;99.90
2929;DHT22;1474;51.460;7.150;2022-09-09T07:38:19;17.70;99.90
2929;DHT22;1474;51.460;7.150;2022-09-09T07:40:45;17.80;99.90
2929;DHT22;1474;51.460;7.150;2022-09-09T07:43:14;17.70;99.90
2929;DHT22;1474;51.460;7.150;2022-09-09T07:45:44;17.70;99.90
2929;DHT22;1474;51.460;7.150;2022-09-09T07:48:10;17.70;99.90
2929;DHT22;1474;51.460;7.150;2022-09-09T07:50:36;17.80;99.90
2929;DHT22;1474;51.460;7.150;2022-09-09T07:53:02;17.90;99.90
2929;DHT22;1474;51.460;7.150;2022-09-09T07:55:31;18.00;99.90
2929;DHT22;1474;51.460;7.150;2022-09-09T07:57:57;18.10;99.90
2929;DHT22;1474;51.460;7.150;2022-09-09T08:00:23;18.10;99.90
2929;DHT22;1474;51.460;7.150;2022-09-09T08:02:49;18.20;99.90
2929;DHT22;1474;51.460;7.150;2022-09-09T08:05:14;18.20;99.90
2929;DHT22;1474;51.460;7.150;2022-09-09T08:07:42;18.20;99.90
2929;DHT22;1474;51.460;7.150;2022-09-09T08:10:08;18.20;99.90
2929;DHT22;1474;51.460;7.150;2022-09-09T08:12:33;18.30;99.90
2929;DHT22;1474;51.460;7.150;2022-09-09T08:14:59;18.30;99.90
2929;DHT22;1474;51.460;7.150;2022-09-09T08:17:25;18.20;99.90
2929;DHT22;1474;51.460;7.150;2022-09-09T08:19:50;18.10;99.90
2929;DHT22;1474;51.460;7.150;2022-09-09T08:22:16;18.20;99.90
2929;DHT22;1474;51.460;7.150;2022-09-09T08:24:41;18.40;99.90
2929;DHT22;1474;51.460;7.150;2022-09-09T08:27:07;18.60;99.90
2929;DHT22;1474;51.460;7.150;2022-09-09T08:29:33;18.60;99.90
2929;DHT22;1474;51.460;7.150;2022-09-09T08:31:59;18.70;99.90
2929;DHT22;1474;51.460;7.150;2022-09-09T08:34:25;18.80;99.90
2929;DHT22;1474;51.460;7.150;2022-09-09T08:36:52;18.80;99.90
2929;DHT22;1474;51.460;7.150;2022-09-09T08:39:20;18.80;99.90
2929;DHT22;1474;51.460;7.150;2022-09-09T08:52:27;19.50;99.90
2929;DHT22;1474;51.460;7.150;2022-09-09T08:54:58;19.70;99.90
2929;DHT22;1474;51.460;7.150;2022-09-09T08:57:28;19.80;99.90
2929;DHT22;1474;51.460;7.150;2022-09-09T08:59:57;19.80;99.90
2929;DHT22;1474;51.460;7.150;2022-09-09T09:02:38;19.90;99.90
2929;DHT22;1474;51.460;7.150;2022-09-09T09:05:24;19.80;99.90
2929;DHT22;1474;51.460;7.150;2022-09-09T09:08:10;19.80;99.90
2929;DHT22;1474;51.460;7.150;2022-09-09T09:13:22;19.90;99.90
2929;DHT22;1474;51.460;7.150;2022-09-09T09:15:57;19.90;99.90
2929;DHT22;1474;51.460;7.150;2022-09-09T09:18:24;20.00;99.90
2929;DHT22;1474;51.460;7.150;2022-09-09T09:23:41;20.20;99.90
2929;DHT22;1474;51.460;7.150;2022-09-09T09:26:09;20.10;99.90
2929;DHT22;1474;51.460;7.150;2022-09-09T09:28:38;20.10;99.90
2929;DHT22;1474;51.460;7.150;2022-09-09T09:31:12;20.10;99.90
2929;DHT22;1474;51.460;7.150;2022-09-09T09:36:08;20.30;99.90
2929;DHT22;1474;51.460;7.150;2022-09-09T09:38:35;20.50;99.90
2929;DHT22;1474;51.460;7.150;2022-09-09T09:41:01;20.70;99.90
2929;DHT22;1474;51.460;7.150;2022-09-09T09:43:29;20.70;99.90
2929;DHT22;1474;51.460;7.150;2022-09-09T09:45:55;20.70;99.90
2929;DHT22;1474;51.460;7.150;2022-09-09T09:48:24;20.80;99.90
2929;DHT22;1474;51.460;7.150;2022-09-09T09:51:10;20.80;99.90
2929;DHT22;1474;51.460;7.150;2022-09-09T09:53:39;21.00;99.90
2929;DHT22;1474;51.460;7.150;2022-09-09T09:56:13;20.90;99.90
2929;DHT22;1474;51.460;7.150;2022-09-09T10:01:25;20.80;99.90
2929;DHT22;1474;51.460;7.150;2022-09-09T10:04:01;20.70;99.90
2929;DHT22;1474;51.460;7.150;2022-09-09T10:06:37;20.50;99.90
2929;DHT22;1474;51.460;7.150;2022-09-09T10:09:20;20.40;99.90
2929;DHT22;1474;51.460;7.150;2022-09-09T10:49:27;20.90;97.90
2929;DHT22;1474;51.460;7.150;2022-09-09T10:57:22;20.90;98.00
2929;DHT22;1474;51.460;7.150;2022-09-09T10:59:53;20.90;97.90
2929;DHT22;1474;51.460;7.150;2022-09-09T11:02:26;21.00;97.90
2929;DHT22;1474;51.460;7.150;2022-09-09T11:05:18;21.00;98.20
2929;DHT22;1474;51.460;7.150;2022-09-09T11:10:25;21.10;98.20
2929;DHT22;1474;51.460;7.150;2022-09-09T11:13:01;21.00;97.60
2929;DHT22;1474;51.460;7.150;2022-09-09T11:15:43;20.80;97.80
2929;DHT22;1474;51.460;7.150;2022-09-09T11:18:17;20.80;97.20
2929;DHT22;1474;51.460;7.150;2022-09-09T11:20:45;20.80;98.30
2929;DHT22;1474;51.460;7.150;2022-09-09T11:23:29;20.80;97.70
2929;DHT22;1474;51.460;7.150;2022-09-09T11:25:59;20.90;98.60
2929;DHT22;1474;51.460;7.150;2022-09-09T11:28:46;21.00;97.40
2929;DHT22;1474;51.460;7.150;2022-09-09T11:42:23;21.10;97.60
2929;DHT22;1474;51.460;7.150;2022-09-09T11:44:50;21.10;98.20
2929;DHT22;1474;51.460;7.150;2022-09-09T11:47:23;20.90;97.70
2929;DHT22;1474;51.460;7.150;2022-09-09T11:50:08;20.80;97.90
2929;DHT22;1474;51.460;7.150;2022-09-09T11:52:40;21.00;98.00
2929;DHT22;1474;51.460;7.150;2022-09-09T11:55:34;21.20;97.90
2929;DHT22;1474;51.460;7.150;2022-09-09T11:58:16;21.20;97.30
2929;DHT22;1474;51.460;7.150;2022-09-09T12:00:47;21.00;97.80
2929;DHT22;1474;51.460;7.150;2022-09-09T12:06:17;21.00;98.10
2929;DHT22;1474;51.460;7.150;2022-09-09T12:08:50;21.00;98.40
2929;DHT22;1474;51.460;7.150;2022-09-09T12:11:42;21.00;98.20
2929;DHT22;1474;51.460;7.150;2022-09-09T12:17:19;20.30;99.90
2929;DHT22;1474;51.460;7.150;2022-09-09T12:19:46;20.30;99.90
2929;DHT22;1474;51.460;7.150;2022-09-09T12:30:40;20.50;99.90
2929;DHT22;1474;51.460;7.150;2022-09-09T12:33:09;20.50;99.90
2929;DHT22;1474;51.460;7.150;2022-09-09T12:35:36;20.50;99.90
2929;DHT22;1474;51.460;7.150;2022-09-09T12:38:04;20.40;99.90
2929;DHT22;1474;51.460;7.150;2022-09-09T12:40:35;20.40;99.90
2929;DHT22;1474;51.460;7.150;2022-09-09T12:43:21;20.30;99.90
2929;DHT22;1474;51.460;7.150;2022-09-09T12:45:48;20.40;99.90
2929;DHT22;1474;51.460;7.150;2022-09-09T12:48:18;20.30;99.90
2929;DHT22;1474;51.460;7.150;2022-09-09T12:50:48;20.30;99.90
2929;DHT22;1474;51.460;7.150;2022-09-09T12:53:31;20.60;99.90
2929;DHT22;1474;51.460;7.150;2022-09-09T12:56:02;20.80;99.90
2929;DHT22;1474;51.460;7.150;2022-09-09T12:58:30;20.90;99.90
2929;DHT22;1474;51.460;7.150;2022-09-09T13:01:01;21.20;99.90
2929;DHT22;1474;51.460;7.150;2022-09-09T13:03:30;21.30;99.90
2929;DHT22;1474;51.460;7.150;2022-09-09T13:06:12;21.50;99.90
2929;DHT22;1474;51.460;7.150;2022-09-09T13:08:38;21.40;99.90
2929;DHT22;1474;51.460;7.150;2022-09-09T13:11:09;21.40;99.90
2929;DHT22;1474;51.460;7.150;2022-09-09T13:13:40;21.50;99.90
2929;DHT22;1474;51.460;7.150;2022-09-09T13:16:22;21.50;99.90
2929;DHT22;1474;51.460;7.150;2022-09-09T13:18:48;21.40;99.90
2929;DHT22;1474;51.460;7.150;2022-09-09T13:21:15;21.30;99.90
2929;DHT22;1474;51.460;7.150;2022-09-09T13:23:41;21.10;99.90
2929;DHT22;1474;51.460;7.150;2022-09-09T13:26:24;21.10;99.90
2929;DHT22;1474;51.460;7.150;2022-09-09T13:28:54;20.90;99.90
2929;DHT22;1474;51.460;7.150;2022-09-09T13:31:27;20.80;99.90
2929;DHT22;1474;51.460;7.150;2022-09-09T13:33:53;20.70;99.90
2929;DHT22;1474;51.460;7.150;2022-09-09T13:36:31;20.70;99.90
2929;DHT22;1474;51.460;7.150;2022-09-09T13:38:59;20.60;99.90
2929;DHT22;1474;51.460;7.150;2022-09-09T13:41:32;20.40;99.90
2929;DHT22;1474;51.460;7.150;2022-09-09T13:43:58;20.40;99.90
2929;DHT22;1474;51.460;7.150;2022-09-09T13:46:40;20.30;99.90
2929;DHT22;1474;51.460;7.150;2022-09-09T13:51:40;20.00;99.90
2929;DHT22;1474;51.460;7.150;2022-09-09T13:54:09;19.60;99.90
2929;DHT22;1474;51.460;7.150;2022-09-09T13:56:37;19.40;99.90
2929;DHT22;1474;51.460;7.150;2022-09-09T13:59:04;19.40;99.90
2929;DHT22;1474;51.460;7.150;2022-09-09T14:01:30;19.40;99.90
2929;DHT22;1474;51.460;7.150;2022-09-09T14:03:56;19.50;99.90
2929;DHT22;1474;51.460;7.150;2022-09-09T14:06:22;19.50;99.90
2929;DHT22;1474;51.460;7.150;2022-09-09T14:08:51;19.40;99.90
2929;DHT22;1474;51.460;7.150;2022-09-09T14:11:18;19.40;99.90
2929;DHT22;1474;51.460;7.150;2022-09-09T14:13:44;19.30;99.90
2929;DHT22;1474;51.460;7.150;2022-09-09T14:16:10;19.40;99.90
2929;DHT22;1474;51.460;7.150;2022-09-09T14:18:36;19.50;99.90
2929;DHT22;1474;51.460;7.150;2022-09-09T14:21:03;19.70;99.90
2929;DHT22;1474;51.460;7.150;2022-09-09T14:23:29;19.80;99.90
2929;DHT22;1474;51.460;7.150;2022-09-09T14:25:55;19.90;99.90
2929;DHT22;1474;51.460;7.150;2022-09-09T14:28:21;20.00;99.90
2929;DHT22;1474;51.460;7.150;2022-09-09T14:30:47;20.10;99.90
2929;DHT22;1474;51.460;7.150;2022-09-09T14:33:15;20.20;99.90
2929;DHT22;1474;51.460;7.150;2022-09-09T14:35:41;20.30;99.90
2929;DHT22;1474;51.460;7.150;2022-09-09T14:38:07;20.30;99.90
2929;DHT22;1474;51.460;7.150;2022-09-09T14:40:34;20.30;99.90
2929;DHT22;1474;51.460;7.150;2022-09-09T14:43:00;20.20;99.90
2929;DHT22;1474;51.460;7.150;2022-09-09T14:45:26;20.10;99.90
2929;DHT22;1474;51.460;7.150;2022-09-09T14:47:52;20.10;99.90
2929;DHT22;1474;51.460;7.150;2022-09-09T14:50:22;20.10;99.90
2929;DHT22;1474;51.460;7.150;2022-09-09T14:52:48;20.10;99.90
2929;DHT22;1474;51.460;7.150;2022-09-09T14:55:14;20.20;99.90
2929;DHT22;1474;51.460;7.150;2022-09-09T14:57:40;20.30;99.90
2929;DHT22;1474;51.460;7.150;2022-09-09T15:00:08;20.40;99.90
2929;DHT22;1474;51.460;7.150;2022-09-09T15:02:34;20.20;99.90
2929;DHT22;1474;51.460;7.150;2022-09-09T15:05:00;20.20;99.90
2929;DHT22;1474;51.460;7.150;2022-09-09T15:07:27;20.10;99.90
2929;DHT22;1474;51.460;7.150;2022-09-09T15:09:54;19.90;99.90
2929;DHT22;1474;51.460;7.150;2022-09-09T15:12:20;19.80;99.90
2929;DHT22;1474;51.460;7.150;2022-09-09T15:14:49;19.60;99.90
2929;DHT22;1474;51.460;7.150;2022-09-09T15:17:16;19.40;99.90
2929;DHT22;1474;51.460;7.150;2022-09-09T15:19:41;18.70;99.90
2929;DHT22;1474;51.460;7.150;2022-09-09T15:22:08;18.40;99.90
2929;DHT22;1474;51.460;7.150;2022-09-09T15:24:35;18.10;99.90
2929;DHT22;1474;51.460;7.150;2022-09-09T15:27:01;17.80;99.90
2929;DHT22;1474;51.460;7.150;2022-09-09T15:29:27;17.60;99.90
2929;DHT22;1474;51.460;7.150;2022-09-09T15:31:56;17.50;99.90
2929;DHT22;1474;51.460;7.150;2022-09-09T15:34:22;17.50;99.90
2929;DHT22;1474;51.460;7.150;2022-09-09T15:36:48;17.40;99.90
2929;DHT22;1474;51.460;7.150;2022-09-09T15:39:17;17.40;99.90
2929;DHT22;1474;51.460;7.150;2022-09-09T15:41:47;17.40;99.90
2929;DHT22;1474;51.460;7.150;2022-09-09T15:44:13;17.40;99.90
2929;DHT22;1474;51.460;7.150;2022-09-09T15:46:45;17.50;99.90
2929;DHT22;1474;51.460;7.150;2022-09-09T15:49:20;17.30;99.90
2929;DHT22;1474;51.460;7.150;2022-09-09T15:51:58;17.20;99.90
2929;DHT22;1474;51.460;7.150;2022-09-09T15:54:25;17.30;99.90
2929;DHT22;1474;51.460;7.150;2022-09-09T15:56:56;17.30;99.90
2929;DHT22;1474;51.460;7.150;2022-09-09T15:59:24;17.40;99.90
2929;DHT22;1474;51.460;7.150;2022-09-09T16:01:50;17.40;99.90
2929;DHT22;1474;51.460;7.150;2022-09-09T16:04:17;17.50;99.90
2929;DHT22;1474;51.460;7.150;2022-09-09T16:06:50;17.50;99.90
2929;DHT22;1474;51.460;7.150;2022-09-09T16:09:16;17.60;99.90
2929;DHT22;1474;51.460;7.150;2022-09-09T16:11:41;17.60;99.90
2929;DHT22;1474;51.460;7.150;2022-09-09T16:14:07;17.30;99.90
2929;DHT22;1474;51.460;7.150;2022-09-09T16:16:33;17.30;99.90
2929;DHT22;1474;51.460;7.150;2022-09-09T16:19:06;17.20;99.90
2929;DHT22;1474;51.460;7.150;2022-09-09T16:21:37;17.20;99.90
2929;DHT22;1474;51.460;7.150;2022-09-09T16:24:04;17.20;99.90
2929;DHT22;1474;51.460;7.150;2022-09-09T16:26:32;17.20;99.90
2929;DHT22;1474;51.460;7.150;2022-09-09T16:28:58;17.10;99.90
2929;DHT22;1474;51.460;7.150;2022-09-09T16:31:25;17.20;99.90
2929;DHT22;1474;51.460;7.150;2022-09-09T16:33:52;17.20;99.90
2929;DHT22;1474;51.460;7.150;2022-09-09T16:36:20;17.20;99.90
2929;DHT22;1474;51.460;7.150;2022-09-09T16:38:46;17.20;99.90
2929;DHT22;1474;51.460;7.150;2022-09-09T16:41:13;17.20;99.90
2929;DHT22;1474;51.460;7.150;2022-09-09T16:43:39;17.20;99.90
2929;DHT22;1474;51.460;7.150;2022-09-09T16:46:17;17.20;99.90
2929;DHT22;1474;51.460;7.150;2022-09-09T16:48:44;17.20;99.90
2929;DHT22;1474;51.460;7.150;2022-09-09T16:51:16;17.20;99.90
2929;DHT22;1474;51.460;7.150;2022-09-09T16:53:42;17.20;99.90
2929;DHT22;1474;51.460;7.150;2022-09-09T16:56:10;17.10;99.90
2929;DHT22;1474;51.460;7.150;2022-09-09T16:58:36;16.80;99.90
2929;DHT22;1474;51.460;7.150;2022-09-09T17:01:03;16.70;99.90
2929;DHT22;1474;51.460;7.150;2022-09-09T17:03:29;16.70;99.90
2929;DHT22;1474;51.460;7.150;2022-09-09T17:05:55;16.80;99.90
2929;DHT22;1474;51.460;7.150;2022-09-09T17:08:23;16.90;99.90
2929;DHT22;1474;51.460;7.150;2022-09-09T17:10:49;16.90;99.90
2929;DHT22;1474;51.460;7.150;2022-09-09T17:13:15;16.90;99.90
2929;DHT22;1474;51.460;7.150;2022-09-09T17:15:45;17.00;99.90
2929;DHT22;1474;51.460;7.150;2022-09-09T17:18:12;17.00;99.90
2929;DHT22;1474;51.460;7.150;2022-09-09T17:20:38;16.90;99.90
2929;DHT22;1474;51.460;7.150;2022-09-09T17:23:08;17.00;99.90
2929;DHT22;1474;51.460;7.150;2022-09-09T17:25:35;16.90;99.90
2929;DHT22;1474;51.460;7.150;2022-09-09T17:28:01;16.80;99.90
2929;DHT22;1474;51.460;7.150;2022-09-09T17:30:30;16.80;99.90
2929;DHT22;1474;51.460;7.150;2022-09-09T17:32:59;16.80;99.90
2929;DHT22;1474;51.460;7.150;2022-09-09T17:35:25;16.90;99.90
2929;DHT22;1474;51.460;7.150;2022-09-09T17:37:53;16.80;99.90
2929;DHT22;1474;51.460;7.150;2022-09-09T17:40:19;16.80;99.90
2929;DHT22;1474;51.460;7.150;2022-09-09T17:42:45;16.80;99.90
2929;DHT22;1474;51.460;7.150;2022-09-09T17:45:12;16.80;99.90
2929;DHT22;1474;51.460;7.150;2022-09-09T17:47:38;16.70;99.90
2929;DHT22;1474;51.460;7.150;2022-09-09T17:50:05;16.70;99.90
2929;DHT22;1474;51.460;7.150;2022-09-09T17:52:32;16.70;99.90
2929;DHT22;1474;51.460;7.150;2022-09-09T17:54:57;16.70;99.90
2929;DHT22;1474;51.460;7.150;2022-09-09T17:57:23;16.80;99.90
2929;DHT22;1474;51.460;7.150;2022-09-09T17:59:50;16.80;99.90
2929;DHT22;1474;51.460;7.150;2022-09-09T18:02:15;16.80;99.90
2929;DHT22;1474;51.460;7.150;2022-09-09T18:04:41;16.80;99.90
2929;DHT22;1474;51.460;7.150;2022-09-09T18:07:07;16.80;99.90
2929;DHT22;1474;51.460;7.150;2022-09-09T18:09:33;16.80;99.90
2929;DHT22;1474;51.460;7.150;2022-09-09T18:11:59;16.70;99.90
2929;DHT22;1474;51.460;7.150;2022-09-09T18:14:28;16.70;99.90
2929;DHT22;1474;51.460;7.150;2022-09-09T18:16:54;16.70;99.90
2929;DHT22;1474;51.460;7.150;2022-09-09T18:19:23;16.70;99.90
2929;DHT22;1474;51.460;7.150;2022-09-09T18:21:49;16.70;99.90
2929;DHT22;1474;51.460;7.150;2022-09-09T18:24:17;16.70;99.90
2929;DHT22;1474;51.460;7.150;2022-09-09T18:26:44;16.80;99.90
2929;DHT22;1474;51.460;7.150;2022-09-09T18:29:12;16.70;99.90
2929;DHT22;1474;51.460;7.150;2022-09-09T18:31:38;16.80;99.90
2929;DHT22;1474;51.460;7.150;2022-09-09T18:34:08;16.80;99.90
2929;DHT22;1474;51.460;7.150;2022-09-09T18:36:39;16.80;99.90
2929;DHT22;1474;51.460;7.150;2022-09-09T18:39:07;16.80;99.90
2929;DHT22;1474;51.460;7.150;2022-09-09T18:41:35;16.70;99.90
2929;DHT22;1474;51.460;7.150;2022-09-09T18:44:05;16.80;99.90
2929;DHT22;1474;51.460;7.150;2022-09-09T18:46:33;16.80;99.90
2929;DHT22;1474;51.460;7.150;2022-09-09T18:48:59;16.70;99.90
2929;DHT22;1474;51.460;7.150;2022-09-09T18:51:27;16.70;99.90